Time;durP1;ratioP1;P1;durP2;ratioP2;P2;SDS_P1;SDS_P2;PMS_P1;PMS_P2;Temp;Humidity;BMP_temperature;BMP_pressure;BME280_temperature;BME280_humidity;BME280_pressure;Samples;Min_cycle;Max_cycle;Signal;HPM_P1;HPM_P2
2021/12/24 00:01:08;;;;;;;10.40;2.38;;;;;;;6.40;80.81;99137.03;4977543;28;20081;-55
2021/12/24 00:03:36;;;;;;;13.43;2.80;;;;;;;6.39;81.00;99129.31;4961727;28;20051;-50
2021/12/24 00:06:05;;;;;;;14.18;4.38;;;;;;;6.36;81.00;99125.03;4963741;28;20043;-49
2021/12/24 00:08:32;;;;;;;8.32;2.88;;;;;;;6.37;81.33;99136.16;4958777;28;20047;-51
2021/12/24 00:11:01;;;;;;;13.35;3.95;;;;;;;6.33;82.10;99137.91;4962726;28;20058;-50
2021/12/24 00:13:30;;;;;;;17.02;4.97;;;;;;;6.33;82.39;99137.91;4961844;28;20054;-54
2021/12/24 00:16:06;;;;;;;13.38;2.70;;;;;;;6.28;81.07;99140.44;4967165;28;20487;-50
2021/12/24 00:18:47;;;;;;;11.50;2.83;;;;;;;6.27;82.41;99140.44;4974466;28;20105;-52
2021/12/24 00:35:27;;;;;;;19.70;5.15;;;;;;;6.08;81.23;99117.28;4963201;28;20062;-49
2021/12/24 00:37:53;;;;;;;15.52;3.88;;;;;;;6.07;82.54;99120.72;4963348;28;20102;-50
2021/12/24 00:40:20;;;;;;;18.90;3.92;;;;;;;6.05;82.05;99122.47;4965396;28;20100;-53
2021/12/24 00:42:52;;;;;;;11.75;3.35;;;;;;;6.06;82.71;99119.03;4965438;28;20154;-51
2021/12/24 00:45:23;;;;;;;21.40;5.60;;;;;;;6.08;82.40;99122.44;4966554;28;20086;-53
2021/12/24 00:47:51;;;;;;;15.95;4.50;;;;;;;6.11;81.86;99127.59;4966014;28;20051;-50
2021/12/24 00:50:23;;;;;;;15.25;4.63;;;;;;;6.14;82.93;99125.03;4967250;28;20050;-52
2021/12/24 00:52:56;;;;;;;22.05;5.30;;;;;;;6.20;82.84;99128.44;4961451;28;20727;-52
2021/12/24 00:55:26;;;;;;;19.83;5.78;;;;;;;6.24;83.04;99128.47;4968734;28;20050;-51
2021/12/24 00:58:00;;;;;;;23.48;6.55;;;;;;;6.28;82.54;99116.44;4962800;28;20105;-52
2021/12/24 01:00:31;;;;;;;22.42;7.35;;;;;;;6.30;82.60;99117.31;4964245;28;20043;-53
2021/12/24 01:02:59;;;;;;;26.00;4.80;;;;;;;6.36;82.61;99125.03;4963789;28;20475;-49
2021/12/24 01:05:28;;;;;;;29.35;6.85;;;;;;;6.40;82.13;99126.75;4965816;28;20046;-50
2021/12/24 01:07:55;;;;;;;25.70;4.53;;;;;;;6.44;82.95;99132.72;4964155;28;20098;-54
2021/12/24 01:10:26;;;;;;;28.48;6.30;;;;;;;6.47;82.66;99131.88;4964580;28;20711;-50
2021/12/24 01:12:53;;;;;;;35.28;6.78;;;;;;;6.49;83.32;99120.72;4968967;28;20050;-48
2021/12/24 01:15:21;;;;;;;32.45;4.93;;;;;;;6.56;82.27;99129.31;4960987;28;20529;-49
2021/12/24 01:19:09;;;;;;;27.20;4.63;;;;;;;6.59;82.69;99124.16;4963051;28;20051;-50
2021/12/24 01:20:45;;;;;;;33.00;5.70;;;;;;;6.61;82.84;99122.44;4959919;28;20133;-53
2021/12/24 01:26:09;;;;;;;27.70;5.07;;;;;;;6.67;82.20;99130.16;4964021;28;20078;-50
2021/12/24 01:29:02;;;;;;;20.83;5.03;;;;;;;6.68;83.63;99134.44;4965397;28;20483;-51
2021/12/24 01:40:07;;;;;;;35.92;7.07;;;;;;;6.79;83.92;99131.00;4963731;28;20615;-48
2021/12/24 01:42:49;;;;;;;31.90;5.28;;;;;;;6.82;83.06;99136.09;4966436;28;20058;-52
2021/12/24 01:45:18;;;;;;;;;;;;;;;6.78;83.11;99139.56;4965704;28;20121;-49
2021/12/24 01:47:45;;;;;;;24.02;6.15;;;;;;;6.86;83.22;99132.66;4965255;28;20030;-56
2021/12/24 01:50:13;;;;;;;30.42;4.82;;;;;;;6.89;82.27;99131.81;4962268;28;20051;-52
2021/12/24 01:52:40;;;;;;;36.45;6.32;;;;;;;6.91;83.11;99120.66;4964080;28;20453;-50
2021/12/24 01:55:08;;;;;;;27.30;5.40;;;;;;;6.93;83.22;99131.78;4966056;28;20055;-52
2021/12/24 01:57:36;;;;;;;32.50;7.63;;;;;;;6.96;83.22;99127.50;4966048;28;20070;-47
2021/12/24 02:00:06;;;;;;;35.33;8.77;;;;;;;6.97;83.49;99124.06;4964546;28;20055;-53
2021/12/24 02:02:33;;;;;;;31.95;5.45;;;;;;;6.99;83.35;99132.66;4964072;28;20055;-50
2021/12/24 02:05:00;;;;;;;32.58;5.82;;;;;;;7.03;83.05;99118.91;4960968;28;20071;-57
2021/12/24 02:07:27;;;;;;;29.50;7.50;;;;;;;7.05;81.88;99117.16;4964284;28;20733;-53
2021/12/24 02:09:54;;;;;;;35.55;8.15;;;;;;;7.07;82.00;99125.75;4962269;28;20106;-55
2021/12/24 02:12:24;;;;;;;48.97;7.95;;;;;;;7.09;83.61;99134.31;4965559;28;20059;-49
2021/12/24 02:14:54;;;;;;;42.60;6.75;;;;;;;7.12;82.81;99129.16;4964741;28;20430;-54
2021/12/24 02:17:57;;;;;;;31.80;7.13;;;;;;;7.15;82.11;99139.47;4963756;28;20069;-51
2021/12/24 02:28:41;;;;;;;36.47;7.43;;;;;;;7.24;82.15;99132.56;4966915;28;20557;-51
2021/12/24 02:31:12;;;;;;;27.00;5.15;;;;;;;7.27;83.66;99138.56;4964453;28;20042;-51
2021/12/24 02:33:40;;;;;;;34.42;5.22;;;;;;;7.29;83.62;99133.38;4958207;28;20051;-49
2021/12/24 02:36:08;;;;;;;31.15;6.75;;;;;;;7.32;83.02;99135.97;4956343;28;20434;-48
2021/12/24 02:38:35;;;;;;;23.60;6.55;;;;;;;7.31;82.21;99129.97;4964952;28;20073;-49
2021/12/24 02:41:02;;;;;;;30.83;4.95;;;;;;;7.34;82.36;99136.81;4963730;28;20109;-54
2021/12/24 02:43:29;;;;;;;31.35;7.05;;;;;;;7.34;83.19;99129.09;4962703;28;20054;-54
2021/12/24 02:46:05;;;;;;;28.08;5.22;;;;;;;7.31;82.70;99135.13;4949938;28;20713;-51
2021/12/24 02:48:57;;;;;;;27.60;4.88;;;;;;;7.32;83.02;99116.22;4959103;28;20047;-52
2021/12/24 02:54:09;;;;;;;15.85;4.85;;;;;;;7.30;82.56;99119.66;4967602;28;20591;-48
2021/12/24 02:56:39;;;;;;;25.30;5.80;;;;;;;7.29;82.71;99112.78;4967929;28;20047;-54
2021/12/24 02:59:11;;;;;;;27.38;4.72;;;;;;;7.29;83.74;99117.94;4970641;28;20113;-50
2021/12/24 03:01:40;;;;;;;30.52;6.00;;;;;;;7.30;82.34;99119.66;4967223;28;20054;-53
2021/12/24 03:04:08;;;;;;;36.88;5.35;;;;;;;7.30;83.02;99112.78;4968542;28;20050;-55
2021/12/24 03:06:39;;;;;;;25.85;5.32;;;;;;;7.29;82.92;99111.06;4965031;28;20119;-53
2021/12/24 03:09:09;;;;;;;39.88;6.20;;;;;;;7.32;83.94;99105.91;4968170;28;20038;-51
2021/12/24 03:11:36;;;;;;;29.63;5.25;;;;;;;7.34;82.61;99113.63;4966418;28;20043;-53
2021/12/24 03:14:05;;;;;;;38.92;6.68;;;;;;;7.36;82.54;99105.91;4967667;28;20074;-52
2021/12/24 03:16:34;;;;;;;38.75;6.70;;;;;;;7.36;82.96;99109.31;4965948;28;20054;-50
2021/12/24 03:19:01;;;;;;;39.28;6.15;;;;;;;7.38;81.91;99114.47;4966887;28;20102;-53
2021/12/24 03:21:35;;;;;;;34.70;7.93;;;;;;;7.40;83.53;99112.75;4968574;28;20050;-49
2021/12/24 03:26:49;;;;;;;37.55;6.03;;;;;;;7.39;82.93;99117.03;4970441;28;20058;-51
2021/12/24 03:29:18;;;;;;;31.73;6.00;;;;;;;7.42;83.57;99116.16;4965176;28;20475;-50
2021/12/24 03:31:45;;;;;;;34.28;6.32;;;;;;;7.40;83.18;99116.16;4967824;28;20101;-51
2021/12/24 03:34:16;;;;;;;31.70;5.43;;;;;;;7.43;83.56;99107.59;4968539;28;20107;-50
2021/12/24 03:36:42;;;;;;;29.05;6.63;;;;;;;7.42;83.09;99111.88;4970074;28;20054;-53
2021/12/24 03:39:10;;;;;;;29.92;6.03;;;;;;;7.43;82.88;99111.00;4967447;28;20043;-53
2021/12/24 03:41:37;;;;;;;27.48;5.35;;;;;;;7.44;83.23;99106.72;4965537;28;20503;-49
2021/12/24 03:44:06;;;;;;;23.40;4.70;;;;;;;7.45;83.73;99117.03;4966658;28;20106;-50
2021/12/24 03:46:44;;;;;;;32.08;5.40;;;;;;;7.45;82.84;99111.00;4962692;28;20046;-52
2021/12/24 03:49:20;;;;;;;28.27;7.05;;;;;;;7.47;83.47;99109.28;4965798;28;20073;-51
2021/12/24 03:51:56;;;;;;;43.42;6.13;;;;;;;7.45;82.96;99104.13;4961949;28;20054;-53
2021/12/24 03:57:09;;;;;;;37.17;6.72;;;;;;;7.45;82.16;99101.56;4967187;28;20053;-51
2021/12/24 03:59:36;;;;;;;34.90;6.28;;;;;;;7.46;83.38;99095.53;4964225;28;20043;-53
2021/12/24 04:02:02;;;;;;;32.40;6.85;;;;;;;7.49;83.34;99101.56;4967596;28;20105;-57
2021/12/24 04:04:29;;;;;;;26.30;5.88;;;;;;;7.49;82.11;99109.28;4968335;28;20046;-50
2021/12/24 04:06:56;;;;;;;34.00;7.15;;;;;;;7.49;82.05;99104.13;4965173;28;20055;-50
2021/12/24 04:09:25;;;;;;;42.63;8.38;;;;;;;7.50;82.42;99096.38;4968651;28;20445;-47
2021/12/24 04:11:52;;;;;;;36.78;6.05;;;;;;;7.51;82.28;99094.66;4964092;28;20116;-52
2021/12/24 04:14:22;;;;;;;37.83;7.07;;;;;;;7.51;82.09;99100.69;4970888;28;20055;-48
2021/12/24 04:16:49;;;;;;;25.40;5.93;;;;;;;7.52;82.27;99107.53;4971357;28;20097;-51
2021/12/24 04:24:52;;;;;;;27.55;5.47;;;;;;;7.52;83.20;99111.81;4965267;28;20127;-52
2021/12/24 04:27:22;;;;;;;28.67;6.05;;;;;;;7.52;81.91;99096.34;4973395;28;20101;-54
2021/12/24 04:29:49;;;;;;;29.83;5.53;;;;;;;7.54;82.26;99104.94;4965650;28;20047;-54
2021/12/24 04:32:20;;;;;;;26.35;5.57;;;;;;;7.53;81.63;99098.94;4977925;28;20063;-54
2021/12/24 04:34:50;;;;;;;25.73;5.15;;;;;;;7.52;83.11;99104.09;4976006;28;20596;-53
2021/12/24 04:38:01;;;;;;;20.77;4.65;;;;;;;7.53;82.02;99090.38;4972746;28;20109;-56
2021/12/24 04:51:18;;;;;;;18.98;4.60;;;;;;;7.51;82.01;99090.38;4967264;28;20121;-53
2021/12/24 05:02:18;;;;;;;22.17;4.75;;;;;;;7.50;81.78;99095.53;4976499;28;20074;-52
2021/12/24 05:04:50;;;;;;;27.08;5.05;;;;;;;7.46;81.85;99095.53;4968030;28;20505;-54
2021/12/24 05:07:46;;;;;;;24.02;5.28;;;;;;;7.45;81.43;99090.38;4969741;28;20051;-54
2021/12/24 05:10:06;;;;;;;29.58;4.50;;;;;;;7.42;82.41;99096.41;4977331;28;20039;-51
2021/12/24 05:12:34;;;;;;;22.52;5.55;;;;;;;7.40;82.25;99103.28;4960876;28;20047;-48
2021/12/24 05:15:04;;;;;;;21.10;4.65;;;;;;;7.42;82.76;99096.41;4971566;28;20063;-54
2021/12/24 05:17:47;;;;;;;20.27;4.57;;;;;;;7.37;82.83;99092.16;4968635;28;20058;-55
2021/12/24 05:23:02;;;;;;;23.13;4.00;;;;;;;7.36;82.62;99095.59;4976627;28;20058;-50
2021/12/24 05:25:29;;;;;;;23.23;5.07;;;;;;;7.35;82.69;99099.88;4965044;28;20125;-52
2021/12/24 05:27:55;;;;;;;26.80;5.05;;;;;;;7.34;81.24;99093.03;4971102;28;20073;-50
2021/12/24 05:30:24;;;;;;;18.77;6.32;;;;;;;7.34;83.17;99095.59;4970397;28;20419;-51
2021/12/24 05:32:51;;;;;;;17.95;4.97;;;;;;;7.33;82.88;99092.16;4971663;28;20055;-52
2021/12/24 05:35:18;;;;;;;38.35;7.00;;;;;;;7.35;81.57;99084.44;4972728;28;20121;-53
2021/12/24 05:37:44;;;;;;;25.80;5.68;;;;;;;7.35;82.34;99094.72;4966974;28;20051;-58
2021/12/24 05:40:11;;;;;;;17.42;3.97;;;;;;;7.32;82.82;99092.16;4969581;28;20747;-51
2021/12/24 05:42:38;;;;;;;16.58;3.38;;;;;;;7.33;81.20;99092.16;4966806;28;20113;-52
2021/12/24 05:45:07;;;;;;;19.00;3.80;;;;;;;7.33;81.08;99086.19;4980901;28;20062;-48
2021/12/24 05:47:34;;;;;;;17.75;3.72;;;;;;;7.29;81.98;99077.59;4966900;28;20050;-52
2021/12/24 05:50:00;;;;;;;23.67;3.65;;;;;;;7.29;81.77;99074.16;4973317;28;20054;-48
2021/12/24 05:52:27;;;;;;;21.30;4.80;;;;;;;7.27;82.62;99070.75;4975034;28;20437;-56
2021/12/24 05:54:54;;;;;;;21.33;6.18;;;;;;;7.24;82.80;99070.75;4967501;28;20062;-54
2021/12/24 05:57:21;;;;;;;17.25;3.45;;;;;;;7.19;81.62;99070.75;4977580;28;20093;-54
2021/12/24 05:59:47;;;;;;;18.40;3.33;;;;;;;7.12;81.11;99064.78;4966365;28;20051;-51
2021/12/24 06:02:14;;;;;;;19.95;3.72;;;;;;;7.09;81.24;99067.38;4978459;28;20170;-50
2021/12/24 06:04:41;;;;;;;17.33;3.75;;;;;;;7.04;82.41;99058.81;4969296;28;20054;-51
2021/12/24 06:07:08;;;;;;;14.75;3.42;;;;;;;6.99;82.74;99050.28;4972011;28;20106;-49
2021/12/24 06:09:34;;;;;;;18.70;4.25;;;;;;;6.93;80.90;99051.16;4968312;28;20101;-52
2021/12/24 06:12:01;;;;;;;21.38;4.00;;;;;;;6.88;81.66;99042.56;4965465;28;20216;-51
2021/12/24 06:14:28;;;;;;;23.65;3.95;;;;;;;6.80;80.95;99050.34;4972530;28;20101;-50
2021/12/24 06:17:01;;;;;;;16.20;3.53;;;;;;;6.72;80.63;99047.78;4966169;28;20051;-53
2021/12/24 06:19:32;;;;;;;11.13;3.08;;;;;;;6.64;80.58;99045.22;4972034;28;20054;-53
2021/12/24 06:22:00;;;;;;;20.30;3.42;;;;;;;6.56;82.41;99042.66;4967086;28;20524;-56
2021/12/24 06:24:27;;;;;;;23.40;3.47;;;;;;;6.49;81.74;99038.41;4967644;28;20462;-52
2021/12/24 06:26:54;;;;;;;12.13;3.20;;;;;;;6.42;81.07;99029.84;4970492;28;20494;-53
2021/12/24 06:29:21;;;;;;;14.30;3.45;;;;;;;6.38;81.61;99032.44;4966999;28;20050;-51
2021/12/24 06:31:49;;;;;;;24.08;4.10;;;;;;;6.33;80.87;99035.00;4981750;28;20070;-52
2021/12/24 06:34:16;;;;;;;13.77;4.65;;;;;;;6.25;80.84;99029.03;4988714;28;20136;-49
2021/12/24 06:36:46;;;;;;;13.25;3.10;;;;;;;6.19;80.96;99031.59;4968553;28;20047;-50
2021/12/24 06:39:13;;;;;;;22.52;5.63;;;;;;;6.13;81.72;99033.34;4964780;28;20093;-53
2021/12/24 06:41:40;;;;;;;11.48;3.50;;;;;;;6.09;81.77;99036.75;4969315;28;20145;-53
2021/12/24 06:44:10;;;;;;;17.85;3.22;;;;;;;6.08;82.01;99029.88;4981123;28;20276;-52
2021/12/24 06:46:40;;;;;;;16.55;3.45;;;;;;;6.08;81.12;99027.31;4955474;28;20054;-50
2021/12/24 06:49:07;;;;;;;27.52;4.32;;;;;;;6.07;81.45;99033.31;4975418;28;20053;-51
2021/12/24 06:51:34;;;;;;;21.73;3.95;;;;;;;6.09;82.94;99030.75;4966038;28;20046;-52
2021/12/24 06:54:01;;;;;;;24.40;4.22;;;;;;;6.11;81.85;99027.31;4969539;28;20055;-53
2021/12/24 06:56:28;;;;;;;15.55;4.13;;;;;;;6.11;81.66;99024.75;4974219;28;20101;-56
2021/12/24 06:58:54;;;;;;;22.00;4.53;;;;;;;6.13;81.45;99025.63;4979366;28;20494;-53
2021/12/24 07:01:22;;;;;;;19.90;5.80;;;;;;;6.16;81.31;99038.47;4979010;28;20120;-49
2021/12/24 07:03:49;;;;;;;74.57;6.60;;;;;;;6.19;82.67;99041.88;4972183;28;20058;-51
2021/12/24 07:06:16;;;;;;;57.70;5.28;;;;;;;6.20;82.74;99038.44;4974970;28;20051;-51
2021/12/24 07:08:43;;;;;;;65.47;5.68;;;;;;;6.22;82.76;99039.31;4968924;28;20443;-53
2021/12/24 07:11:09;;;;;;;39.03;6.40;;;;;;;6.22;81.11;99041.88;4974727;28;20675;-49
2021/12/24 07:13:36;;;;;;;57.20;8.88;;;;;;;6.23;82.45;99035.88;4970402;28;20475;-50
2021/12/24 07:16:03;;;;;;;30.70;5.03;;;;;;;6.23;81.12;99041.03;4977617;28;20065;-49
2021/12/24 07:18:29;;;;;;;27.40;3.15;;;;;;;6.23;82.63;99052.19;4971641;28;20051;-51
2021/12/24 07:20:56;;;;;;;32.53;4.20;;;;;;;6.22;81.03;99052.16;4971461;28;20054;-51
2021/12/24 07:23:23;;;;;;;42.42;4.28;;;;;;;6.19;81.92;99052.16;4976172;28;20486;-52
2021/12/24 07:25:49;;;;;;;32.83;4.30;;;;;;;6.19;82.18;99049.59;4969104;28;20054;-48
2021/12/24 07:28:16;;;;;;;44.58;8.00;;;;;;;6.19;83.03;99047.91;4977611;28;20104;-48
2021/12/24 07:30:43;;;;;;;28.45;6.30;;;;;;;6.21;81.47;99053.03;4969807;28;20054;-56
2021/12/24 07:33:14;;;;;;;24.42;4.15;;;;;;;6.22;81.10;99049.59;4970841;28;20046;-51
2021/12/24 07:35:43;;;;;;;30.27;4.90;;;;;;;6.24;82.04;99053.00;4963613;28;20081;-49
2021/12/24 07:38:13;;;;;;;27.02;4.00;;;;;;;6.24;82.63;99046.16;4965442;28;20047;-47
2021/12/24 07:40:40;;;;;;;;;;;;;;;6.19;83.12;99050.47;4971828;28;20097;-47
2021/12/24 07:43:08;;;;;;;23.80;4.90;;;;;;;6.25;82.66;99052.19;4975447;28;19993;-52
2021/12/24 07:45:36;;;;;;;23.80;5.07;;;;;;;6.28;81.66;99049.56;4964034;28;20105;-53
2021/12/24 07:48:11;;;;;;;16.95;3.42;;;;;;;6.29;81.17;99053.88;4972065;28;20058;-54
2021/12/24 07:53:26;;;;;;;11.15;2.50;;;;;;;6.30;81.86;99059.03;4965723;28;20050;-50
2021/12/24 07:55:55;;;;;;;9.30;2.20;;;;;;;6.28;82.13;99059.88;4975790;28;20043;-55
2021/12/24 07:58:22;;;;;;;12.77;1.90;;;;;;;6.26;82.60;99059.03;4968995;28;20097;-49
2021/12/24 08:00:50;;;;;;;9.80;2.28;;;;;;;6.21;82.17;99058.19;4979498;28;20039;-51
2021/12/24 08:03:18;;;;;;;10.23;2.40;;;;;;;6.17;82.04;99071.03;4970722;28;20207;-49
2021/12/24 08:05:46;;;;;;;11.82;2.20;;;;;;;6.14;81.48;99063.31;4967231;28;20105;-49
2021/12/24 08:08:12;;;;;;;10.70;2.03;;;;;;;6.12;81.63;99062.44;4972934;28;20079;-53
2021/12/24 08:10:41;;;;;;;14.48;3.58;;;;;;;6.11;82.03;99065.88;4969615;28;20047;-48
2021/12/24 08:13:08;;;;;;;15.27;4.30;;;;;;;6.10;81.40;99069.31;4974593;28;20062;-52
2021/12/24 08:15:35;;;;;;;12.60;4.00;;;;;;;6.11;80.84;99073.59;4966588;28;20462;-53
2021/12/24 08:18:06;;;;;;;12.13;4.05;;;;;;;6.09;80.91;99075.31;4973009;28;20065;-54
2021/12/24 08:20:33;;;;;;;17.98;4.10;;;;;;;6.08;82.21;99076.16;4966225;28;20092;-52
2021/12/24 08:23:00;;;;;;;12.57;6.75;;;;;;;6.07;81.15;99077.03;4962914;28;20038;-52
2021/12/24 08:25:26;;;;;;;13.60;4.03;;;;;;;6.06;81.62;99080.47;4964213;28;20058;-49
2021/12/24 08:27:53;;;;;;;15.77;3.15;;;;;;;6.09;81.70;99077.91;4973423;28;20046;-53
2021/12/24 08:30:20;;;;;;;12.43;2.90;;;;;;;6.16;81.48;99074.47;4969220;28;20043;-54
2021/12/24 08:32:47;;;;;;;8.40;2.75;;;;;;;6.23;81.74;99069.31;4965735;28;20055;-48
2021/12/24 08:35:16;;;;;;;9.15;2.33;;;;;;;6.31;81.38;99067.59;4973438;28;20050;-54
2021/12/24 08:37:43;;;;;;;13.35;2.50;;;;;;;6.45;81.40;99069.28;4964919;28;20058;-49
2021/12/24 08:40:11;;;;;;;8.38;3.85;;;;;;;6.68;80.57;99052.09;4980524;28;20051;-50
2021/12/24 08:42:38;;;;;;;8.82;3.55;;;;;;;7.06;80.61;99047.66;4969844;28;20124;-53
2021/12/24 08:45:06;;;;;;;9.55;2.05;;;;;;;7.38;80.59;99053.50;4971340;28;20055;-49
2021/12/24 08:47:33;;;;;;;7.20;2.10;;;;;;;7.75;79.68;99052.41;4962030;28;20046;-49
2021/12/24 08:50:00;;;;;;;7.00;2.38;;;;;;;7.89;78.73;99049.72;4973200;28;20054;-54
2021/12/24 08:52:26;;;;;;;7.95;3.67;;;;;;;7.91;78.18;99047.97;4975393;28;20046;-47
2021/12/24 08:54:53;;;;;;;8.68;2.03;;;;;;;7.92;77.78;99054.88;4963627;28;20063;-49
2021/12/24 08:57:19;;;;;;;7.63;1.90;;;;;;;7.87;78.21;99051.44;4964083;28;20135;-51
2021/12/24 08:59:46;;;;;;;12.88;2.53;;;;;;;7.73;76.96;99054.13;4963345;28;20058;-47
2021/12/24 09:02:17;;;;;;;8.90;2.45;;;;;;;7.57;78.66;99055.97;4969607;28;20058;-49
2021/12/24 09:04:44;;;;;;;35.30;5.63;;;;;;;7.36;77.00;99050.06;4960498;28;20699;-52
2021/12/24 09:07:10;;;;;;;27.63;5.97;;;;;;;7.20;77.62;99050.16;4963482;28;20059;-49
2021/12/24 09:09:37;;;;;;;27.98;6.40;;;;;;;7.05;79.07;99055.38;4967847;28;20101;-55
2021/12/24 09:12:04;;;;;;;22.48;4.13;;;;;;;6.94;77.96;99052.84;4958772;28;20066;-54
2021/12/24 09:14:31;;;;;;;18.85;3.95;;;;;;;6.84;79.25;99052.03;4970244;28;20455;-48
2021/12/24 09:17:00;;;;;;;29.75;4.25;;;;;;;6.76;78.04;99044.31;4962437;28;20047;-49
2021/12/24 09:19:28;;;;;;;23.35;4.20;;;;;;;6.71;77.76;99048.63;4978175;28;20050;-50
2021/12/24 09:21:57;;;;;;;17.70;3.10;;;;;;;6.66;77.94;99040.91;4964445;28;20128;-51
2021/12/24 09:24:26;;;;;;;10.27;2.42;;;;;;;6.63;77.81;99038.38;4969902;28;20057;-53
2021/12/24 09:26:56;;;;;;;9.05;1.70;;;;;;;6.63;78.86;99035.81;4967838;28;20047;-52
2021/12/24 09:29:24;;;;;;;5.07;1.30;;;;;;;6.62;78.29;99036.66;4967656;28;20719;-50
2021/12/24 09:31:51;;;;;;;3.25;1.30;;;;;;;6.59;79.15;99033.25;4965536;28;20725;-49
2021/12/24 09:34:17;;;;;;;9.23;1.48;;;;;;;6.57;78.11;99028.09;4962702;28;20097;-50
2021/12/24 09:36:44;;;;;;;12.35;2.70;;;;;;;6.54;79.01;99033.25;4974918;28;20108;-51
2021/12/24 09:39:11;;;;;;;15.45;2.70;;;;;;;6.53;80.04;99031.53;4964115;28;20051;-47
2021/12/24 09:41:39;;;;;;;12.80;2.22;;;;;;;6.53;78.40;99031.53;4969424;28;20059;-53
2021/12/24 09:44:06;;;;;;;23.67;2.80;;;;;;;6.56;78.22;99036.69;4960431;28;20080;-52
2021/12/24 09:46:32;;;;;;;23.10;5.03;;;;;;;6.52;78.36;99034.97;4962660;28;20454;-49
2021/12/24 09:48:59;;;;;;;25.90;2.17;;;;;;;6.47;78.68;99037.56;4965829;28;20715;-50
2021/12/24 09:51:28;;;;;;;16.35;2.33;;;;;;;6.42;79.49;99029.84;4966039;28;20051;-47
2021/12/24 09:53:56;;;;;;;22.35;1.55;;;;;;;6.39;79.77;99023.84;4962346;28;20090;-56
2021/12/24 09:56:24;;;;;;;25.40;2.47;;;;;;;6.36;79.80;99036.72;4944781;28;20082;-49
2021/12/24 09:58:51;;;;;;;41.13;4.53;;;;;;;6.34;79.48;99041.88;4961700;28;20067;-50
2021/12/24 10:01:35;;;;;;;22.92;2.45;;;;;;;6.33;79.97;99045.31;4958668;28;20046;-49
2021/12/24 10:04:07;;;;;;;7.72;1.27;;;;;;;6.40;79.12;99041.88;4960722;28;20121;-49
2021/12/24 10:06:34;;;;;;;5.43;1.50;;;;;;;6.49;79.09;99040.13;4963385;28;20054;-51
2021/12/24 10:09:07;;;;;;;6.80;1.80;;;;;;;6.61;80.24;99050.38;4962194;28;20483;-50
2021/12/24 10:11:57;;;;;;;5.63;1.45;;;;;;;6.66;78.87;99035.78;4965058;28;20458;-47
2021/12/24 10:14:36;;;;;;;6.50;3.00;;;;;;;6.83;80.14;99032.31;4957052;28;21500;-51
2021/12/24 10:17:04;;;;;;;5.55;2.25;;;;;;;6.97;79.89;99036.53;4974276;28;20047;-50
2021/12/24 10:19:51;;;;;;;8.65;2.55;;;;;;;6.99;78.90;99039.97;4965743;28;20110;-51
2021/12/24 10:22:25;;;;;;;12.95;3.83;;;;;;;7.05;79.10;99037.34;4966369;28;20059;-55
2021/12/24 10:25:05;;;;;;;17.80;2.53;;;;;;;6.96;79.15;99034.81;4963499;28;20493;-47
2021/12/24 10:27:34;;;;;;;10.55;2.60;;;;;;;6.92;79.69;99042.56;4962047;28;20109;-51
2021/12/24 10:30:21;;;;;;;10.07;1.80;;;;;;;6.86;78.82;99037.41;4965068;28;20101;-47
2021/12/24 10:32:50;;;;;;;7.28;1.63;;;;;;;6.86;79.16;99027.13;4962715;28;20047;-50
2021/12/24 10:35:21;;;;;;;10.70;3.95;;;;;;;6.85;78.46;99033.16;4959257;28;20083;-54
2021/12/24 10:38:12;;;;;;;16.77;5.30;;;;;;;6.78;78.46;99026.31;4963500;28;20043;-55
2021/12/24 10:40:59;;;;;;;14.75;6.47;;;;;;;6.80;78.60;99024.59;4964313;28;20109;-51
2021/12/24 10:43:28;;;;;;;10.50;4.75;;;;;;;6.80;79.63;99019.44;4978976;28;20054;-50
2021/12/24 10:46:17;;;;;;;9.60;5.00;;;;;;;6.75;79.42;99016.88;4956443;28;20050;-51
2021/12/24 10:49:06;;;;;;;6.65;1.80;;;;;;;6.76;78.84;99010.03;4960928;28;20055;-54
2021/12/24 10:51:57;;;;;;;8.38;1.98;;;;;;;6.74;78.62;99010.03;4961430;28;20486;-50
2021/12/24 10:54:25;;;;;;;7.10;2.00;;;;;;;6.76;78.97;99002.31;4961192;28;20113;-53
2021/12/24 10:56:53;;;;;;;6.53;1.90;;;;;;;6.75;78.16;99001.44;4964259;28;20046;-49
2021/12/24 10:59:43;;;;;;;6.72;1.98;;;;;;;6.72;79.22;99003.19;4962199;28;20074;-56
2021/12/24 11:02:11;;;;;;;14.23;5.18;;;;;;;6.84;78.38;99004.84;4966340;28;20050;-52
2021/12/24 11:04:38;;;;;;;5.03;1.88;;;;;;;6.90;79.24;99005.69;4962306;28;20105;-51
2021/12/24 11:07:41;;;;;;;5.78;3.53;;;;;;;6.92;80.03;98997.94;4957921;28;20054;-51
2021/12/24 11:10:15;;;;;;;24.45;5.97;;;;;;;7.01;80.35;98986.75;4970526;28;20534;-54
2021/12/24 11:12:46;;;;;;;20.08;5.25;;;;;;;7.08;79.86;98988.41;4980538;28;20081;-51
2021/12/24 11:15:20;;;;;;;16.30;6.45;;;;;;;7.14;79.46;98993.53;4971240;28;20051;-50
2021/12/24 11:17:49;;;;;;;18.05;6.50;;;;;;;7.20;78.82;98980.63;4972092;28;20529;-48
2021/12/24 11:20:16;;;;;;;9.35;3.20;;;;;;;7.27;79.28;98983.16;4972715;28;20038;-50
2021/12/24 11:22:54;;;;;;;8.88;3.28;;;;;;;7.32;78.69;98971.97;4977423;28;20479;-48
2021/12/24 11:25:23;;;;;;;17.20;6.05;;;;;;;7.42;79.63;98966.75;4966617;28;20043;-53
2021/12/24 11:27:50;;;;;;;11.45;4.75;;;;;;;7.49;78.93;98965.00;4965351;28;20093;-53
2021/12/24 11:30:21;;;;;;;7.72;1.80;;;;;;;7.54;78.78;98955.50;4964640;28;20047;-49
2021/12/24 11:32:53;;;;;;;6.93;2.42;;;;;;;7.59;79.09;98961.47;4963862;28;20066;-51
2021/12/24 11:35:20;;;;;;;7.22;5.47;;;;;;;7.62;78.21;98964.00;4963616;28;20094;-48
2021/12/24 11:37:49;;;;;;;4.55;1.63;;;;;;;7.65;79.16;98964.00;4968183;28;20055;-50
2021/12/24 11:40:18;;;;;;;6.95;1.85;;;;;;;7.67;79.56;98967.41;4964669;28;20055;-50
2021/12/24 11:42:51;;;;;;;15.02;4.32;;;;;;;7.70;79.37;98967.38;4966594;28;20053;-50
2021/12/24 11:45:21;;;;;;;14.25;4.00;;;;;;;7.71;79.18;98969.09;4963380;28;20129;-46
2021/12/24 11:47:48;;;;;;;9.57;3.65;;;;;;;7.71;79.25;98969.09;4954561;28;20054;-53
2021/12/24 11:50:16;;;;;;;9.20;4.28;;;;;;;7.69;78.79;98963.09;4971336;28;20105;-53
2021/12/24 11:52:45;;;;;;;8.02;2.42;;;;;;;7.69;79.32;98965.69;4955213;28;20105;-55
2021/12/24 11:55:12;;;;;;;8.65;2.25;;;;;;;7.69;79.61;98965.69;4964176;28;20630;-53
2021/12/24 11:57:51;;;;;;;5.63;2.13;;;;;;;7.67;78.93;98957.09;4964848;28;20058;-52
2021/12/24 12:00:30;;;;;;;7.13;2.53;;;;;;;7.66;79.12;98952.81;4962425;28;20055;-54
2021/12/24 12:02:56;;;;;;;7.55;2.15;;;;;;;7.68;79.20;98958.81;4964476;28;20590;-54
2021/12/24 12:05:34;;;;;;;7.68;2.25;;;;;;;7.64;79.45;98957.13;4958000;28;20047;-50
2021/12/24 12:08:30;;;;;;;7.93;1.67;;;;;;;7.61;79.38;98959.75;4963424;28;20047;-53
2021/12/24 12:11:14;;;;;;;5.20;1.90;;;;;;;7.60;78.31;98955.44;4963256;28;20089;-55
2021/12/24 12:13:45;;;;;;;7.90;4.18;;;;;;;7.61;79.41;98949.44;4968795;28;20050;-55
2021/12/24 12:16:18;;;;;;;8.02;3.88;;;;;;;7.64;78.78;98957.13;4970074;28;20055;-51
2021/12/24 12:19:01;;;;;;;7.47;2.08;;;;;;;7.66;79.46;98950.22;4964875;28;20051;-51
2021/12/24 12:21:50;;;;;;;7.68;2.58;;;;;;;7.69;78.75;98954.50;4963198;28;20043;-51
2021/12/24 12:27:17;;;;;;;10.75;3.63;;;;;;;7.67;79.48;98972.56;4964335;28;20062;-52
2021/12/24 12:29:45;;;;;;;6.07;3.47;;;;;;;7.69;78.96;98973.41;4966733;28;20117;-55
2021/12/24 12:32:27;;;;;;;9.57;3.25;;;;;;;7.68;79.70;98971.72;4960440;28;20059;-53
2021/12/24 12:34:59;;;;;;;6.90;2.88;;;;;;;7.75;79.97;98959.63;4961785;28;20109;-49
2021/12/24 12:37:50;;;;;;;9.77;2.95;;;;;;;7.76;79.55;98955.28;4959609;28;20129;-51
2021/12/24 12:40:30;;;;;;;14.20;5.13;;;;;;;7.79;78.86;98955.28;4964658;28;20047;-53
2021/12/24 12:43:08;;;;;;;8.68;4.85;;;;;;;7.82;79.26;98950.09;4960364;28;20077;-48
2021/12/24 12:45:55;;;;;;;8.77;3.55;;;;;;;7.80;79.42;98947.53;4956697;28;20113;-54
2021/12/24 12:48:24;;;;;;;10.10;2.88;;;;;;;7.85;78.75;98944.91;4964178;28;20051;-51
2021/12/24 12:50:58;;;;;;;8.35;4.20;;;;;;;7.88;79.26;98944.91;4963613;28;20415;-54
2021/12/24 12:53:36;;;;;;;9.88;2.38;;;;;;;7.86;78.41;98941.47;4962704;28;20046;-48
2021/12/24 12:56:27;;;;;;;7.88;3.22;;;;;;;7.80;78.64;98949.28;4963319;28;20054;-50
2021/12/24 12:59:06;;;;;;;8.93;3.95;;;;;;;7.83;78.39;98951.81;4958230;28;20059;-51
2021/12/24 13:01:49;;;;;;;5.88;2.30;;;;;;;7.80;78.67;98947.53;4962468;28;20050;-53
2021/12/24 13:04:17;;;;;;;10.55;4.70;;;;;;;7.86;79.89;98949.19;4965685;28;20640;-55
2021/12/24 13:06:49;;;;;;;8.70;4.50;;;;;;;7.86;78.75;98950.94;4964666;28;20730;-51
2021/12/24 13:09:21;;;;;;;7.20;2.70;;;;;;;7.89;79.08;98936.28;4957230;28;20055;-50